الصفحة الرئيسية
METAR-TAF:

METAR-TAF

مطار :

Merimbula, أستراليا

دائرة عرض: 36-54-31S, خط طول: 149-54-05E, ارتفاع: 2 متر

مراقبة الطقس الحالي

تاريخ ووقت الإصدار 13 دقيقة قبل الساعة 22:00UTC
ريح 7 عقدة من الجنوب الغربي
درجة الحرارة 13°درجة مئوية
الرطوبة 88%
ضغط 1026 hPa
الرؤية 10 كم أو أكثر
غيوم مفككة على ارتفاع 2900 قدم
ملبد بالغيوم على ارتفاع 3600 قدم

METAR: YMER 252200Z AUTO 22007KT 9999 // BKN029 OVC036 13/11 Q1026

زمن: 08:13 (22:13 UTC)


TAF: مفقودة

أرصاد الطقس والتوقعات من أكثر من 4000 مطار (تقارير الطقس للمطار METAR والتنبؤ بالطقس بالمطارTAF).

المحطات المتاحة هي النقط الصفراء والحمراء على الخريطة.

حرك المؤشر فوق النقطة لمعرفة اسم المحطة.

ثم انقر لمعرفة أرصاد وتوقعات الطقس.

لتغيير الخارطة: اضغط على الأزرار الخضراء مع رمز الصليب الأسود للتكبير. على الزر الأخضر مع شرطة للتصغير، أو على الأسهم الخضراء للخرائط المجاورة.


METAR-TAF: